Time;durP1;ratioP1;P1;durP2;ratioP2;P2;SDS_P1;SDS_P2;PMS_P1;PMS_P2;Temp;Humidity;BMP_temperature;BMP_pressure;BME280_temperature;BME280_humidity;BME280_pressure;Samples;Min_cycle;Max_cycle;Signal;HPM_P1;HPM_P2
2020/02/09 00:01:31;;;;;;;17;13.5;;;;;;;;;;;;;
2020/02/09 00:08:06;;;;;;;17.1;13.5;;;;;;;;;;;;;
2020/02/09 00:10:20;;;;;;;18;12.8;;;;;;;;;;;;;
2020/02/09 00:20:03;;;;;;;16.8;12.4;;;;;;;;;;;;;
2020/02/09 00:22:35;;;;;;;15.2;12;;;;;;;;;;;;;
2020/02/09 00:24:53;;;;;;;14.9;12.2;;;;;;;;;;;;;
2020/02/09 00:27:17;;;;;;;17.6;12.1;;;;;;;;;;;;;
2020/02/09 00:33:00;;;;;;;17.2;12.1;;;;;;;;;;;;;
2020/02/09 00:38:55;;;;;;;14.3;11.7;;;;;;;1.59;90.69141;966.0709;;;;
2020/02/09 00:41:30;;;;;;;13;11.4;;;;;;;1.69;90.14941;966.105;;;;
2020/02/09 00:43:50;;;;;;;14.2;11.2;;;;;;;1.74;89.42578;966.1436;;;;
2020/02/09 00:48:39;;;;;;;14.4;11.6;;;;;;;1.68;89.22266;966.0687;;;;
2020/02/09 00:51:14;;;;;;;16;11.3;;;;;;;1.62;89.9668;966.104;;;;
2020/02/09 00:53:36;;;;;;;15.4;11.1;;;;;;;1.66;89.26172;966.0847;;;;
2020/02/09 00:55:54;;;;;;;13.5;10.6;;;;;;;1.63;89.71875;966.1938;;;;
2020/02/09 00:58:28;;;;;;;13.6;10.5;;;;;;;1.64;89.46094;966.1916;;;;
2020/02/09 01:00:39;;;;;;;13;10.6;;;;;;;1.67;89.51367;966.2475;;;;
2020/02/09 01:03:15;;;;;;;14;10.9;;;;;;;1.53;89.73145;966.2026;;;;
2020/02/09 01:06:07;;;;;;;11.8;10.1;;;;;;;1.57;89.84277;966.1891;;;;
2020/02/09 01:13:23;;;;;;;13.1;10.4;;;;;;;1.45;90.13086;966.199;;;;
2020/02/09 01:15:40;;;;;;;14.9;10.8;;;;;;;1.34;90.45801;966.2326;;;;
2020/02/09 01:17:58;;;;;;;15;11.6;;;;;;;1.25;91.0918;966.2565;;;;
2020/02/09 01:20:22;;;;;;;12.7;10.6;;;;;;;1.39;90.5459;966.2809;;;;
2020/02/09 01:22:47;;;;;;;13.3;10.6;;;;;;;1.42;90.16895;966.2402;;;;
2020/02/09 01:25:12;;;;;;;13.9;10.9;;;;;;;1.51;89.91699;966.3094;;;;
2020/02/09 01:27:38;;;;;;;14.2;10.8;;;;;;;1.56;89.27734;966.375;;;;
2020/02/09 01:30:03;;;;;;;14.2;11.2;;;;;;;1.53;89.50586;966.3889;;;;
2020/02/09 01:32:28;;;;;;;13;10.7;;;;;;;1.54;88.56348;966.3968;;;;
2020/02/09 01:34:53;;;;;;;12.2;10.5;;;;;;;1.65;88.61816;966.4215;;;;
2020/02/09 01:37:18;;;;;;;13.7;10.7;;;;;;;1.64;88.44824;966.4666;;;;
2020/02/09 01:39:44;;;;;;;13.5;10.5;;;;;;;1.73;87.29297;966.3983;;;;
2020/02/09 01:44:34;;;;;;;11.7;9.6;;;;;;;1.85;87.14941;966.431;;;;
2020/02/09 01:49:31;;;;;;;13.3;9.8;;;;;;;1.79;87.47656;966.3365;;;;
2020/02/09 01:51:53;;;;;;;11.7;9.8;;;;;;;1.75;87.26465;966.3514;;;;
2020/02/09 01:54:18;;;;;;;11.4;9.5;;;;;;;1.73;87.40527;966.3404;;;;
2020/02/09 01:56:43;;;;;;;12.8;10.8;;;;;;;1.7;87.46777;966.2722;;;;
2020/02/09 01:59:08;;;;;;;12.9;10.8;;;;;;;1.67;87.13574;966.2532;;;;
2020/02/09 02:02:23;;;;;;;13.8;10.4;;;;;;;1.7;87.37793;966.3722;;;;
2020/02/09 02:04:48;;;;;;;12.2;10.4;;;;;;;1.65;87.89648;966.3566;;;;
2020/02/09 02:07:13;;;;;;;11.6;10;;;;;;;1.6;87.48145;966.2896;;;;
2020/02/09 02:09:38;;;;;;;10.7;8.8;;;;;;;1.56;87.33691;966.2736;;;;
2020/02/09 02:12:03;;;;;;;12.3;9.4;;;;;;;1.48;87.5459;966.25;;;;
2020/02/09 02:14:28;;;;;;;10.1;9;;;;;;;1.48;87.37793;966.2316;;;;
2020/02/09 02:16:54;;;;;;;10.6;8.8;;;;;;;1.44;87.68457;966.2378;;;;
2020/02/09 02:19:19;;;;;;;12.8;9.2;;;;;;;1.44;87.97754;966.2211;;;;
2020/02/09 02:21:44;;;;;;;12.2;9.4;;;;;;;1.33;87.80859;966.1312;;;;
2020/02/09 02:24:10;;;;;;;11.7;9.2;;;;;;;1.32;88.08887;966.1027;;;;
2020/02/09 02:26:35;;;;;;;15;9.7;;;;;;;1.28;87.68652;966.0725;;;;
2020/02/09 02:29:00;;;;;;;11.6;8.8;;;;;;;1.29;88.18262;966.0927;;;;
2020/02/09 02:31:25;;;;;;;11.8;9.4;;;;;;;1.31;87.19727;966.08;;;;
2020/02/09 02:33:50;;;;;;;12.2;9.1;;;;;;;1.34;87.23633;966.0739;;;;
2020/02/09 02:36:15;;;;;;;13.7;9.3;;;;;;;1.47;86.72168;966.1033;;;;
2020/02/09 02:38:41;;;;;;;11.6;8.8;;;;;;;1.45;87.18848;966.0961;;;;
2020/02/09 02:41:06;;;;;;;11.6;9.3;;;;;;;1.48;87.04004;966.0453;;;;
2020/02/09 02:43:31;;;;;;;11.3;9.4;;;;;;;1.55;86.42188;966.002;;;;
2020/02/09 02:45:56;;;;;;;11.5;9.6;;;;;;;1.57;86.16895;965.949;;;;
2020/02/09 02:48:21;;;;;;;11.2;9.3;;;;;;;1.67;86.01953;965.9808;;;;
2020/02/09 02:50:47;;;;;;;11.8;8.8;;;;;;;1.73;85.51172;966.0466;;;;
2020/02/09 02:55:56;;;;;;;11.6;8.7;;;;;;;1.68;86.10938;966.0588;;;;
2020/02/09 02:58:12;;;;;;;11.1;9.1;;;;;;;1.63;86.24707;966.0369;;;;
2020/02/09 03:00:30;;;;;;;9.7;8.4;;;;;;;1.59;85.99219;966.008;;;;
2020/02/09 03:04:00;;;;;;;11;8.5;;;;;;;1.55;85.44336;965.9775;;;;
2020/02/09 03:06:25;;;;;;;11.5;8.6;;;;;;;1.51;85.66895;966.0508;;;;
2020/02/09 03:08:50;;;;;;;10.1;7.9;;;;;;;1.49;86.03906;966.0665;;;;
2020/02/09 03:11:15;;;;;;;9;7.8;;;;;;;1.49;85.62207;966.0311;;;;
2020/02/09 03:13:40;;;;;;;8.7;7.5;;;;;;;1.48;85.50586;966.0273;;;;
2020/02/09 03:21:55;;;;;;;10;8.3;;;;;;;1.43;85.52148;965.8647;;;;
2020/02/09 03:24:33;;;;;;;10.8;8.1;;;;;;;1.44;86.47949;965.8508;;;;
2020/02/09 03:27:12;;;;;;;10.2;7.8;;;;;;;1.46;85.73926;965.9;;;;
2020/02/09 03:29:52;;;;;;;11.3;8.6;;;;;;;1.34;86.13281;965.9981;;;;
2020/02/09 03:31:37;;;;;;;10.7;8.3;;;;;;;1.33;86.84961;966.0603;;;;
2020/02/09 03:34:11;;;;;;;11.5;9.2;;;;;;;;;;;;;
2020/02/09 03:36:22;;;;;;;9.8;8.3;;;;;;;;;;;;;
2020/02/09 03:38:46;;;;;;;11.4;8.4;;;;;;;;;;;;;
2020/02/09 03:41:12;;;;;;;11.5;8.3;;;;;;;;;;;;;
2020/02/09 03:48:47;;;;;;;10.4;7.6;;;;;;;;;;;;;
2020/02/09 03:50:56;;;;;;;9.8;7.6;;;;;;;;;;;;;
2020/02/09 03:53:24;;;;;;;9.6;7.2;;;;;;;;;;;;;
2020/02/09 03:56:08;;;;;;;8.5;7.4;;;;;;;;;;;;;
2020/02/09 04:02:33;;;;;;;9.5;7.6;;;;;;;2.05;84.40332;965.9338;;;;
2020/02/09 04:05:05;;;;;;;8.7;7.2;;;;;;;2.04;83.11523;965.9882;;;;
2020/02/09 04:10:10;;;;;;;9.1;7;;;;;;;2.06;83.96484;966.0848;;;;
2020/02/09 04:17:03;;;;;;;9.2;7.2;;;;;;;2.15;83.22656;966.075;;;;
2020/02/09 04:19:41;;;;;;;8.7;7.2;;;;;;;2.14;83.38281;966.0928;;;;
2020/02/09 04:22:04;;;;;;;7.9;6.6;;;;;;;2.15;83.62402;966.082;;;;
2020/02/09 04:24:20;;;;;;;8.5;6.5;;;;;;;2.14;83.1709;966.168;;;;
2020/02/09 04:26:38;;;;;;;9.1;7;;;;;;;2.15;82.37109;966.1255;;;;
2020/02/09 04:29:03;;;;;;;9.1;7.2;;;;;;;2.12;84.25977;966.0355;;;;
2020/02/09 04:31:28;;;;;;;10.8;7.3;;;;;;;2.03;83.02148;965.955;;;;
2020/02/09 04:33:53;;;;;;;8.1;7;;;;;;;2.07;83.40332;965.9345;;;;
2020/02/09 04:36:34;;;;;;;9.2;7.1;;;;;;;2;84.14453;965.9547;;;;
2020/02/09 04:38:59;;;;;;;8.6;7;;;;;;;1.98;84.12988;965.9504;;;;
2020/02/09 04:41:24;;;;;;;8.2;6.7;;;;;;;2.04;83.70215;965.9027;;;;
2020/02/09 04:43:49;;;;;;;8.6;6.5;;;;;;;1.99;83.44336;965.9503;;;;
2020/02/09 04:46:14;;;;;;;8.5;6.4;;;;;;;2.05;83.41211;965.9961;;;;
2020/02/09 04:48:39;;;;;;;8.2;6.2;;;;;;;2.09;83.66797;965.9603;;;;
2020/02/09 04:51:04;;;;;;;6.6;5.9;;;;;;;2.11;83.68066;965.9028;;;;
2020/02/09 04:53:29;;;;;;;7.6;6;;;;;;;2.09;83.4082;965.9506;;;;
2020/02/09 04:55:54;;;;;;;8;6.4;;;;;;;2.02;83.8457;965.9691;;;;
2020/02/09 04:58:20;;;;;;;7.6;5.9;;;;;;;2.09;83.36328;965.9838;;;;
2020/02/09 05:00:45;;;;;;;7.7;6.3;;;;;;;2.03;83.79102;966.0694;;;;
2020/02/09 05:03:13;;;;;;;8.7;6.1;;;;;;;2.09;82.90039;966.0085;;;;
2020/02/09 05:05:35;;;;;;;7.8;6.1;;;;;;;2.12;83.97754;965.9767;;;;
2020/02/09 05:08:00;;;;;;;6.8;5.4;;;;;;;2.11;83.07324;965.9472;;;;
2020/02/09 05:10:25;;;;;;;7.6;5.6;;;;;;;2.14;83.39648;965.8063;;;;
2020/02/09 05:12:50;;;;;;;7.6;5.7;;;;;;;2.07;83.27832;965.7545;;;;
2020/02/09 05:15:17;;;;;;;6.8;5.5;;;;;;;2.06;82.99512;965.7511;;;;
2020/02/09 05:17:41;;;;;;;7.5;5.9;;;;;;;2.01;84.19336;965.812;;;;
2020/02/09 05:20:18;;;;;;;7.7;5.4;;;;;;;1.98;82.77832;965.8478;;;;
2020/02/09 05:22:31;;;;;;;7.1;5.3;;;;;;;1.99;82.81152;965.8674;;;;
2020/02/09 05:24:56;;;;;;;6.5;5;;;;;;;2;82.77051;965.8964;;;;
2020/02/09 05:27:22;;;;;;;6.3;4.6;;;;;;;2.07;83.4707;965.8661;;;;
2020/02/09 05:29:47;;;;;;;6.4;4.7;;;;;;;2.04;83.22852;965.8851;;;;
2020/02/09 05:32:12;;;;;;;6.9;4.8;;;;;;;1.98;84.12988;965.7778;;;;
2020/02/09 05:34:37;;;;;;;6.6;4.8;;;;;;;2.01;83.70801;965.7291;;;;
2020/02/09 05:37:02;;;;;;;6.5;4.9;;;;;;;1.83;84.83398;965.8209;;;;
2020/02/09 05:39:27;;;;;;;7.2;5.1;;;;;;;1.86;85.11035;965.8212;;;;
2020/02/09 05:41:52;;;;;;;6.8;4.8;;;;;;;1.79;85.31055;965.8053;;;;
2020/02/09 05:44:18;;;;;;;7.4;5;;;;;;;1.84;85.17285;965.7489;;;;
2020/02/09 05:46:43;;;;;;;5.7;4.7;;;;;;;1.8;85.33594;965.7483;;;;
2020/02/09 05:49:08;;;;;;;6.6;4.6;;;;;;;1.86;85.88867;965.7158;;;;
2020/02/09 05:51:33;;;;;;;5.7;4.5;;;;;;;1.86;85.11035;965.666;;;;
2020/02/09 05:54:15;;;;;;;6.1;4.5;;;;;;;1.87;85.14551;965.5869;;;;
2020/02/09 05:56:30;;;;;;;5.7;4.2;;;;;;;1.81;86.16113;965.6085;;;;
2020/02/09 05:59:01;;;;;;;5.7;4.4;;;;;;;1.88;85.5332;965.5514;;;;
2020/02/09 06:01:37;;;;;;;6.7;4.5;;;;;;;1.77;85.93945;965.5916;;;;
2020/02/09 06:03:44;;;;;;;6.4;4.4;;;;;;;1.78;86.33398;965.5952;;;;
2020/02/09 06:06:12;;;;;;;5.8;4.1;;;;;;;1.78;86.00781;965.4969;;;;
2020/02/09 06:11:04;;;;;;;6.6;4.9;;;;;;;1.76;86.63379;965.5251;;;;
2020/02/09 06:13:30;;;;;;;6.4;4.4;;;;;;;1.67;86.08691;965.5666;;;;
2020/02/09 06:15:57;;;;;;;5.7;4.7;;;;;;;1.71;86.12793;965.634;;;;
2020/02/09 06:18:28;;;;;;;6.3;4.4;;;;;;;1.64;86.39551;965.611;;;;
2020/02/09 06:25:37;;;;;;;5.2;4.4;;;;;;;;;;;;;
2020/02/09 06:37:44;;;;;;;5.7;4.4;;;;;;;;;;;;;
2020/02/09 06:40:16;;;;;;;6.7;4.6;;;;;;;;;;;;;
2020/02/09 06:42:40;;;;;;;6.6;4.7;;;;;;;;;;;;;
2020/02/09 06:44:57;;;;;;;6.2;4.4;;;;;;;;;;;;;
2020/02/09 06:47:23;;;;;;;5.8;4.4;;;;;;;;;;;;;
2020/02/09 06:52:16;;;;;;;7.8;4.6;;;;;;;;;;;;;
2020/02/09 06:54:48;;;;;;;8.8;4.3;;;;;;;;;;;;;
2020/02/09 06:59:28;;;;;;;5.8;3.7;;;;;;;;;;;;;
2020/02/09 07:03:35;;;;;;;5.5;3.4;;;;;;;;;;;;;
2020/02/09 07:04:30;;;;;;;5.6;3.3;;;;;;;;;;;;;
2020/02/09 07:06:43;;;;;;;5.1;3.5;;;;;;;;;;;;;
2020/02/09 07:09:48;;;;;;;5.7;3.3;;;;;;;;;;;;;
2020/02/09 07:14:08;;;;;;;7.8;4.5;;;;;;;;;;;;;
2020/02/09 07:16:31;;;;;;;6.7;3.6;;;;;;;;;;;;;
2020/02/09 07:19:05;;;;;;;7.1;4;;;;;;;;;;;;;
2020/02/09 07:21:47;;;;;;;7.1;3.8;;;;;;;;;;;;;
2020/02/09 07:24:41;;;;;;;6.6;4;;;;;;;;;;;;;
2020/02/09 07:28:49;;;;;;;8.8;3.7;;;;;;;;;;;;;
2020/02/09 07:31:11;;;;;;;7.2;3.5;;;;;;;;;;;;;
2020/02/09 07:35:04;;;;;;;5.1;3.2;;;;;;;;;;;;;
2020/02/09 07:35:44;;;;;;;5.3;3.1;;;;;;;;;;;;;
2020/02/09 07:38:22;;;;;;;5;2.9;;;;;;;;;;;;;
2020/02/09 07:40:41;;;;;;;8;3.5;;;;;;;;;;;;;
2020/02/09 07:43:07;;;;;;;7.3;3;;;;;;;;;;;;;
2020/02/09 07:45:27;;;;;;;6.3;3.2;;;;;;;;;;;;;
2020/02/09 07:47:49;;;;;;;6.4;3.1;;;;;;;;;;;;;
2020/02/09 07:50:17;;;;;;;5.8;3;;;;;;;;;;;;;
2020/02/09 07:55:05;;;;;;;5.6;2.9;;;;;;;;;;;;;
2020/02/09 07:57:27;;;;;;;5.2;2.9;;;;;;;;;;;;;
2020/02/09 08:00:07;;;;;;;5.2;2.9;;;;;;;;;;;;;
2020/02/09 08:04:52;;;;;;;5.2;2.6;;;;;;;;;;;;;
2020/02/09 08:09:45;;;;;;;5.7;2.7;;;;;;;;;;;;;
2020/02/09 08:12:58;;;;;;;5.4;2.9;;;;;;;;;;;;;
2020/02/09 08:20:07;;;;;;;4.2;2.5;;;;;;;;;;;;;
2020/02/09 08:22:53;;;;;;;4.5;2.8;;;;;;;;;;;;;
2020/02/09 08:24:07;;;;;;;4.8;2.9;;;;;;;;;;;;;
2020/02/09 08:29:32;;;;;;;6.4;3.8;;;;;;;;;;;;;
2020/02/09 08:34:01;;;;;;;6.6;3.5;;;;;;;;;;;;;
2020/02/09 08:36:25;;;;;;;7;3.3;;;;;;;;;;;;;
2020/02/09 08:45:54;;;;;;;7.1;3.6;;;;;;;;;;;;;
2020/02/09 08:53:15;;;;;;;9;3.8;;;;;;;;;;;;;
2020/02/09 08:55:40;;;;;;;6.6;3;;;;;;;;;;;;;
2020/02/09 09:00:30;;;;;;;5.6;2.6;;;;;;;;;;;;;
2020/02/09 09:05:10;;;;;;;4.7;2.3;;;;;;;;;;;;;
2020/02/09 09:07:29;;;;;;;4.7;2.4;;;;;;;;;;;;;
2020/02/09 09:09:54;;;;;;;7.1;2.5;;;;;;;;;;;;;
2020/02/09 09:12:31;;;;;;;4.2;2;;;;;;;;;;;;;
2020/02/09 09:14:59;;;;;;;5.2;2.2;;;;;;;;;;;;;
2020/02/09 09:18:08;;;;;;;4.5;2;;;;;;;;;;;;;
2020/02/09 09:20:32;;;;;;;4.6;1.9;;;;;;;;;;;;;
2020/02/09 09:22:57;;;;;;;3.4;1.9;;;;;;;;;;;;;
2020/02/09 09:25:23;;;;;;;4.2;2.2;;;;;;;;;;;;;
2020/02/09 09:27:48;;;;;;;5.1;2.2;;;;;;;;;;;;;
2020/02/09 09:30:13;;;;;;;4.1;2.2;;;;;;;;;;;;;
2020/02/09 09:32:38;;;;;;;4.8;1.9;;;;;;;;;;;;;
2020/02/09 09:35:03;;;;;;;3.1;1.6;;;;;;;;;;;;;
2020/02/09 09:37:28;;;;;;;4.6;1.9;;;;;;;;;;;;;
2020/02/09 09:39:53;;;;;;;5.2;1.8;;;;;;;;;;;;;
2020/02/09 09:45:08;;;;;;;3.9;1.8;;;;;;;;;;;;;
2020/02/09 09:47:13;;;;;;;4.8;1.6;;;;;;;;;;;;;
2020/02/09 09:49:37;;;;;;;4.6;1.8;;;;;;;;;;;;;
2020/02/09 09:51:58;;;;;;;2.8;1.8;;;;;;;;;;;;;
2020/02/09 09:54:24;;;;;;;4.2;1.8;;;;;;;;;;;;;
2020/02/09 09:56:49;;;;;;;4.2;1.9;;;;;;;;;;;;;
2020/02/09 09:59:14;;;;;;;4.9;2.2;;;;;;;;;;;;;
2020/02/09 10:01:39;;;;;;;3.2;2;;;;;;;;;;;;;
2020/02/09 10:04:04;;;;;;;3.7;1.8;;;;;;;;;;;;;
2020/02/09 10:06:29;;;;;;;4.7;2.2;;;;;;;;;;;;;
2020/02/09 10:08:54;;;;;;;3.5;2;;;;;;;;;;;;;
2020/02/09 10:11:19;;;;;;;5.2;2.3;;;;;;;;;;;;;
2020/02/09 10:13:44;;;;;;;4.4;2.2;;;;;;;;;;;;;
2020/02/09 10:16:10;;;;;;;5.2;2.1;;;;;;;;;;;;;
2020/02/09 10:18:35;;;;;;;4.1;2.2;;;;;;;;;;;;;
2020/02/09 10:21:00;;;;;;;4.1;1.8;;;;;;;;;;;;;
2020/02/09 10:23:25;;;;;;;4.4;2;;;;;;;;;;;;;
2020/02/09 10:25:50;;;;;;;4.5;1.8;;;;;;;;;;;;;
2020/02/09 10:28:15;;;;;;;5.7;2;;;;;;;;;;;;;
2020/02/09 10:30:40;;;;;;;3.9;2.2;;;;;;;;;;;;;
2020/02/09 10:33:05;;;;;;;4.6;2.4;;;;;;;;;;;;;
2020/02/09 10:35:31;;;;;;;3.4;1.9;;;;;;;;;;;;;
2020/02/09 10:37:55;;;;;;;3.9;2.3;;;;;;;;;;;;;
2020/02/09 10:40:20;;;;;;;3.7;2.1;;;;;;;;;;;;;
2020/02/09 10:42:45;;;;;;;4.6;2.1;;;;;;;;;;;;;
2020/02/09 10:45:10;;;;;;;4.1;1.9;;;;;;;;;;;;;
2020/02/09 10:50:07;;;;;;;4;1.8;;;;;;;;;;;;;
2020/02/09 10:58:05;;;;;;;4.6;2.1;;;;;;;;;;;;;
2020/02/09 11:03:27;;;;;;;3.7;2;;;;;;;;;;;;;
2020/02/09 11:05:11;;;;;;;5;2;;;;;;;;;;;;;
2020/02/09 11:07:10;;;;;;;4;1.8;;;;;;;;;;;;;
2020/02/09 11:12:40;;;;;;;4.5;1.8;;;;;;;;;;;;;
2020/02/09 11:14:45;;;;;;;3.7;1.7;;;;;;;;;;;;;
2020/02/09 11:17:17;;;;;;;2.9;1.6;;;;;;;;;;;;;
2020/02/09 11:19:39;;;;;;;3.7;1.7;;;;;;;;;;;;;
2020/02/09 11:22:12;;;;;;;3.3;1.5;;;;;;;;;;;;;
2020/02/09 11:24:31;;;;;;;3.7;1.7;;;;;;;;;;;;;
2020/02/09 11:27:01;;;;;;;5;1.6;;;;;;;;;;;;;
2020/02/09 11:29:19;;;;;;;3.9;1.5;;;;;;;;;;;;;
2020/02/09 11:31:49;;;;;;;2.9;1.3;;;;;;;;;;;;;
2020/02/09 11:36:43;;;;;;;3;1.3;;;;;;;;;;;;;
2020/02/09 11:39:08;;;;;;;4.3;1.5;;;;;;;;;;;;;
2020/02/09 11:41:35;;;;;;;4.6;1.4;;;;;;;;;;;;;
2020/02/09 11:51:06;;;;;;;4.4;1.7;;;;;;;;;;;;;
2020/02/09 11:59:50;;;;;;;2.8;1.3;;;;;;;;;;;;;
2020/02/09 12:02:38;;;;;;;3.7;1.4;;;;;;;;;;;;;
2020/02/09 12:04:54;;;;;;;3;1.3;;;;;;;;;;;;;
2020/02/09 12:07:57;;;;;;;4.4;1.7;;;;;;;;;;;;;
2020/02/09 12:09:32;;;;;;;3.9;1.6;;;;;;;;;;;;;
2020/02/09 12:11:57;;;;;;;4.6;1.6;;;;;;;;;;;;;
2020/02/09 12:16:54;;;;;;;3;1.5;;;;;;;;;;;;;
2020/02/09 12:19:25;;;;;;;3;1.6;;;;;;;;;;;;;
2020/02/09 12:21:41;;;;;;;2.5;1.3;;;;;;;;;;;;;
2020/02/09 12:24:21;;;;;;;2.6;1.4;;;;;;;;;;;;;
2020/02/09 12:26:38;;;;;;;3.4;1.4;;;;;;;;;;;;;
2020/02/09 12:29:16;;;;;;;3.5;1.6;;;;;;;;;;;;;
2020/02/09 12:39:44;;;;;;;3.7;1.6;;;;;;;;;;;;;
2020/02/09 12:48:30;;;;;;;3.8;1.3;;;;;;;;;;;;;
2020/02/09 12:55:42;;;;;;;4.2;1.2;;;;;;;;;;;;;
2020/02/09 13:08:01;;;;;;;1.7;1.2;;;;;;;;;;;;;
2020/02/09 13:15:10;;;;;;;1.7;1.1;;;;;;;;;;;;;
2020/02/09 13:17:23;;;;;;;3.3;1.4;;;;;;;;;;;;;
2020/02/09 13:19:50;;;;;;;4.3;1.4;;;;;;;;;;;;;
2020/02/09 13:27:09;;;;;;;1.7;1.1;;;;;;;;;;;;;
2020/02/09 13:31:58;;;;;;;1.8;1.2;;;;;;;;;;;;;
2020/02/09 13:34:34;;;;;;;3.3;1.4;;;;;;;;;;;;;
2020/02/09 13:39:18;;;;;;;1.5;1.1;;;;;;;;;;;;;
2020/02/09 13:41:55;;;;;;;1.4;1;;;;;;;;;;;;;
2020/02/09 13:44:13;;;;;;;3.1;1.8;;;;;;;;;;;;;
2020/02/09 13:51:14;;;;;;;3.1;1.3;;;;;;;12.22;32.91406;959.4627;;;;
2020/02/09 13:56:07;;;;;;;3;1.3;;;;;;;12.41;33.26465;959.4178;;;;
2020/02/09 14:00:37;;;;;;;2.2;1.4;;;;;;;12.36;33.22559;959.3035;;;;
2020/02/09 14:05:12;;;;;;;2.5;1.4;;;;;;;12.47;33.70703;959.2367;;;;
2020/02/09 14:13:20;;;;;;;3.3;1.4;;;;;;;12.51;33.51465;959.0567;;;;
2020/02/09 14:15:06;;;;;;;2.8;1.3;;;;;;;12.45;32.875;959.0045;;;;
2020/02/09 14:17:23;;;;;;;2;1.2;;;;;;;12.45;33.56738;958.8616;;;;
2020/02/09 14:22:11;;;;;;;3.2;1;;;;;;;12.3;34.31934;958.7913;;;;
2020/02/09 14:24:50;;;;;;;3.2;1.4;;;;;;;12.49;33.55859;958.7727;;;;
2020/02/09 14:32:03;;;;;;;1.7;1.1;;;;;;;12.4;33.42578;958.5356;;;;
2020/02/09 14:34:22;;;;;;;2;1;;;;;;;12.27;34.63965;958.4486;;;;
2020/02/09 14:36:44;;;;;;;3.8;1.1;;;;;;;12.35;33.7334;958.3904;;;;
2020/02/09 14:39:36;;;;;;;3;1.2;;;;;;;12.1;35.76953;958.2678;;;;
2020/02/09 14:49:09;;;;;;;2.8;1.1;;;;;;;12.3;34.78125;958.0952;;;;
2020/02/09 14:53:53;;;;;;;2.6;1.3;;;;;;;12.19;35.66113;957.9092;;;;
2020/02/09 15:00:58;;;;;;;2;1.1;;;;;;;12.08;37.52344;957.8452;;;;
2020/02/09 15:05:41;;;;;;;2.5;1.2;;;;;;;11.96;39.19824;957.7794;;;;
2020/02/09 15:11:04;;;;;;;2;1.1;;;;;;;11.55;41.74609;957.666;;;;
2020/02/09 15:15:48;;;;;;;2.1;1.1;;;;;;;11.59;41.53027;957.6281;;;;
2020/02/09 15:18:26;;;;;;;2.7;1.6;;;;;;;11.47;41.7041;957.5637;;;;
2020/02/09 15:20:43;;;;;;;2.4;1.4;;;;;;;11.49;41.46387;957.6033;;;;
2020/02/09 15:27:53;;;;;;;2.5;1.3;;;;;;;11.38;39.96582;957.5758;;;;
2020/02/09 15:30:24;;;;;;;2.4;1.2;;;;;;;11.6;37.10156;957.5294;;;;
2020/02/09 15:32:50;;;;;;;1.8;1.2;;;;;;;11.64;36.81543;957.45;;;;
2020/02/09 15:35:26;;;;;;;2.8;1.3;;;;;;;11.51;37.87891;957.4402;;;;
2020/02/09 15:37:32;;;;;;;4.1;1.5;;;;;;;11.48;36.08691;957.5034;;;;
2020/02/09 15:40:43;;;;;;;2.5;1.4;;;;;;;11.6;36.33984;957.5032;;;;
2020/02/09 15:42:28;;;;;;;3;1.4;;;;;;;11.39;37.5791;957.5081;;;;
2020/02/09 15:44:54;;;;;;;3.3;1.5;;;;;;;11.5;36.72363;957.5364;;;;
2020/02/09 15:52:12;;;;;;;3.3;1.6;;;;;;;11.33;36.58203;957.3727;;;;
2020/02/09 15:54:35;;;;;;;3.3;2;;;;;;;11.25;36.95508;957.4409;;;;
2020/02/09 15:57:08;;;;;;;2.9;1.6;;;;;;;11.29;36.9248;957.3805;;;;
2020/02/09 15:59:37;;;;;;;2.6;1.5;;;;;;;11.24;36.41309;957.3234;;;;
2020/02/09 16:02:03;;;;;;;3.9;1.8;;;;;;;11.14;36.86523;957.3369;;;;
2020/02/09 16:05:02;;;;;;;2.6;1.3;;;;;;;11.12;36.80664;957.1783;;;;
2020/02/09 16:07:16;;;;;;;2.4;1.4;;;;;;;11.15;36.08301;957.1567;;;;
2020/02/09 16:09:04;;;;;;;2.2;1.3;;;;;;;11.01;37.25781;957.1453;;;;
2020/02/09 16:19:16;;;;;;;3.3;1.7;;;;;;;11.03;35.75098;956.8844;;;;
2020/02/09 16:21:14;;;;;;;2.7;1.7;;;;;;;11;35.74902;956.7569;;;;
2020/02/09 16:26:05;;;;;;;4.7;1.6;;;;;;;10.98;36.13867;956.818;;;;
2020/02/09 16:28:58;;;;;;;3.9;1.7;;;;;;;10.89;36.52246;956.7776;;;;
2020/02/09 16:38:10;;;;;;;4.3;1.8;;;;;;;10.56;37.2998;956.9773;;;;
2020/02/09 16:40:40;;;;;;;5.4;1.8;;;;;;;10.54;37.45996;957.1247;;;;
2020/02/09 16:44:08;;;;;;;4.8;1.7;;;;;;;10.41;38.26465;957.1082;;;;
2020/02/09 16:47:51;;;;;;;4.1;1.8;;;;;;;10.39;38.1709;956.8829;;;;
2020/02/09 16:52:43;;;;;;;3.7;1.7;;;;;;;10.4;37.70117;956.7893;;;;
2020/02/09 16:59:52;;;;;;;3.7;1.7;;;;;;;10.3;38.46191;956.8114;;;;
2020/02/09 17:02:35;;;;;;;4.3;1.8;;;;;;;10.13;39.6416;956.7905;;;;
2020/02/09 17:07:19;;;;;;;3.9;1.7;;;;;;;10.13;39.13574;956.7433;;;;
2020/02/09 17:12:15;;;;;;;3.2;1.8;;;;;;;10.11;38.88281;956.6655;;;;
2020/02/09 17:15:26;;;;;;;3.9;1.8;;;;;;;10.01;39.32227;956.6225;;;;
2020/02/09 17:17:09;;;;;;;3.2;1.5;;;;;;;10.13;38.76953;956.6284;;;;
2020/02/09 17:19:42;;;;;;;3.8;1.6;;;;;;;10.1;39.07617;956.5212;;;;
2020/02/09 17:22:01;;;;;;;6;1.7;;;;;;;10.03;39.64551;956.574;;;;
2020/02/09 17:24:37;;;;;;;3.1;1.7;;;;;;;10.07;39.2002;956.4972;;;;
2020/02/09 17:31:31;;;;;;;4;1.7;;;;;;;10.09;39.36328;956.378;;;;
2020/02/09 17:36:36;;;;;;;4.7;2;;;;;;;9.97;39.375;956.2181;;;;
2020/02/09 17:44:59;;;;;;;2.7;1.8;;;;;;;10.05;39.26758;956.0377;;;;
2020/02/09 17:46:06;;;;;;;4.5;2.3;;;;;;;10.01;39.29785;956.0306;;;;
2020/02/09 17:48:48;;;;;;;4.2;2;;;;;;;10.03;39.16211;955.8894;;;;
2020/02/09 17:51:02;;;;;;;3.9;1.8;;;;;;;10.15;38.47168;955.8912;;;;
2020/02/09 17:53:53;;;;;;;5.7;2;;;;;;;10.13;38.94141;955.6278;;;;
2020/02/09 17:58:12;;;;;;;4;2;;;;;;;10.23;38.77832;955.6002;;;;
2020/02/09 18:00:52;;;;;;;3.7;1.8;;;;;;;10.27;38.56348;955.6383;;;;
2020/02/09 18:02:59;;;;;;;3.8;1.7;;;;;;;10.23;38.29492;955.6194;;;;
2020/02/09 18:10:19;;;;;;;5.5;2.1;;;;;;;10.07;38.76367;955.4951;;;;
2020/02/09 18:12:48;;;;;;;3.6;2;;;;;;;10.09;38.97266;955.4971;;;;
2020/02/09 18:15:02;;;;;;;2.2;1.4;;;;;;;9.99;38.89453;955.3652;;;;
2020/02/09 18:17:35;;;;;;;2.8;1.5;;;;;;;9.96;39.25977;955.0506;;;;
2020/02/09 18:22:29;;;;;;;5;2.8;;;;;;;9.91;40.46094;954.8303;;;;
2020/02/09 18:27:50;;;;;;;6.4;3.3;;;;;;;9.83;40.71875;954.5695;;;;
2020/02/09 18:29:37;;;;;;;4.2;2.2;;;;;;;9.72;41.54688;954.5463;;;;
2020/02/09 18:31:58;;;;;;;4;2.2;;;;;;;9.66;41.5752;954.5939;;;;
2020/02/09 18:34:27;;;;;;;3.2;2.1;;;;;;;9.61;41.91504;954.6691;;;;
2020/02/09 18:36:52;;;;;;;4.4;2.5;;;;;;;9.66;42.27539;954.5785;;;;
2020/02/09 18:39:16;;;;;;;5.3;2.2;;;;;;;9.55;42.13867;954.5567;;;;
2020/02/09 18:41:54;;;;;;;4.2;2;;;;;;;9.66;41.74707;954.4589;;;;
2020/02/09 18:44:06;;;;;;;3.5;2;;;;;;;9.59;42.39551;954.615;;;;
2020/02/09 18:48:57;;;;;;;3.7;2.3;;;;;;;9.59;42.26953;954.6964;;;;
2020/02/09 18:51:30;;;;;;;5.4;2.7;;;;;;;9.63;42.2373;954.6797;;;;
2020/02/09 18:53:57;;;;;;;4;2.3;;;;;;;9.65;41.80371;954.6711;;;;
2020/02/09 18:56:07;;;;;;;5.3;2.4;;;;;;;9.58;42.22168;954.7467;;;;
2020/02/09 19:01:08;;;;;;;4.9;2.3;;;;;;;9.64;42.22754;954.65;;;;
2020/02/09 19:03:24;;;;;;;3.9;2.2;;;;;;;9.67;42.20801;954.7318;;;;
2020/02/09 19:05:51;;;;;;;3.9;2;;;;;;;9.66;42.57422;954.6078;;;;
2020/02/09 19:10:45;;;;;;;2.9;1.9;;;;;;;9.63;43.45508;954.4113;;;;
2020/02/09 19:13:14;;;;;;;3.7;2;;;;;;;9.59;43.02734;954.3864;;;;
2020/02/09 19:15:37;;;;;;;4.1;2.1;;;;;;;9.56;43.34473;954.3469;;;;
2020/02/09 19:17:59;;;;;;;4.8;2.2;;;;;;;9.57;43.65723;954.3063;;;;
2020/02/09 19:23:29;;;;;;;5.7;2.3;;;;;;;9.48;44.10742;954.285;;;;
2020/02/09 19:27:52;;;;;;;3.9;2.4;;;;;;;9.44;44.44629;954.3696;;;;
2020/02/09 19:46:15;;;;;;;5.3;2.7;;;;;;;9.16;47.6875;954.207;;;;
2020/02/09 19:53:23;;;;;;;4.5;2.7;;;;;;;8.95;48.89063;953.8314;;;;
2020/02/09 19:55:42;;;;;;;4;2.7;;;;;;;8.87;49.82129;953.6968;;;;
2020/02/09 20:00:34;;;;;;;5.1;2.6;;;;;;;8.74;49.33691;953.5754;;;;
2020/02/09 20:07:52;;;;;;;4.1;2.4;;;;;;;8.64;51.09082;953.1813;;;;
2020/02/09 20:10:10;;;;;;;4.9;3.1;;;;;;;8.37;52.5;953.2335;;;;
2020/02/09 20:15:04;;;;;;;4.7;2.5;;;;;;;8.59;50.46582;952.9948;;;;
2020/02/09 20:17:18;;;;;;;5.4;2.7;;;;;;;8.56;50.20996;953.0422;;;;
2020/02/09 20:24:40;;;;;;;3.7;2.4;;;;;;;8.55;51.38867;952.8624;;;;
2020/02/09 20:27:06;;;;;;;4.6;2.9;;;;;;;8.53;51.68359;952.6983;;;;
2020/02/09 20:29:24;;;;;;;4.8;2.6;;;;;;;8.63;50.50391;952.7167;;;;
2020/02/09 20:31:53;;;;;;;5.3;2.9;;;;;;;8.48;51.25391;952.82;;;;
2020/02/09 20:34:30;;;;;;;3.7;2.7;;;;;;;8.49;52.06836;952.7941;;;;
2020/02/09 20:36:40;;;;;;;5;2.9;;;;;;;8.41;53.46777;952.7963;;;;
2020/02/09 20:41:43;;;;;;;4.6;2.9;;;;;;;8.43;52.67969;952.7606;;;;
2020/02/09 20:48:53;;;;;;;4.7;2.7;;;;;;;8.49;53.44336;952.4311;;;;
2020/02/09 20:53:42;;;;;;;7.7;3.2;;;;;;;8.31;54.34863;952.4183;;;;
2020/02/09 20:56:43;;;;;;;4.2;3;;;;;;;8.38;53.24512;952.3466;;;;
2020/02/09 20:58:33;;;;;;;4.5;3;;;;;;;8.57;51.54102;952.188;;;;
2020/02/09 21:00:52;;;;;;;8.2;4.7;;;;;;;8.77;49.81055;952.1064;;;;
2020/02/09 21:05:52;;;;;;;4;2.5;;;;;;;9.22;47.47559;951.8204;;;;
2020/02/09 21:10:53;;;;;;;4.9;2.1;;;;;;;9.35;46.97363;951.8225;;;;
2020/02/09 21:13:16;;;;;;;3.9;2.1;;;;;;;9.46;45.71191;951.8214;;;;
2020/02/09 21:15:39;;;;;;;5.8;2.3;;;;;;;9.46;45.98828;951.8669;;;;
2020/02/09 21:20:20;;;;;;;3.1;2.1;;;;;;;9.6;45.45117;951.4615;;;;
2020/02/09 21:25:16;;;;;;;3.3;1.9;;;;;;;9.71;45.24414;951.1201;;;;
2020/02/09 21:28:27;;;;;;;4.7;2;;;;;;;9.69;45.31152;951.0737;;;;
2020/02/09 21:30:24;;;;;;;4.8;2.3;;;;;;;9.7;45.27734;951.0485;;;;
2020/02/09 21:32:37;;;;;;;5.2;2.7;;;;;;;9.7;45.66797;951.1209;;;;
2020/02/09 21:40:11;;;;;;;5.1;2.2;;;;;;;9.55;46.43359;951.0562;;;;
2020/02/09 21:43:06;;;;;;;4.4;2.4;;;;;;;9.57;46.65234;951.2522;;;;
2020/02/09 21:45:09;;;;;;;3.3;2.2;;;;;;;9.45;47.2373;951.1763;;;;
2020/02/09 21:49:37;;;;;;;5.5;2.4;;;;;;;9.47;47.60645;950.87;;;;
2020/02/09 21:54:41;;;;;;;3.6;2;;;;;;;9.34;48.58008;950.5055;;;;
2020/02/09 21:58:34;;;;;;;4.3;2.2;;;;;;;9.29;48.78027;950.3529;;;;
2020/02/09 22:06:15;;;;;;;3.5;2;;;;;;;9.2;48.81641;950.2228;;;;
2020/02/09 22:08:33;;;;;;;4.1;2.5;;;;;;;9.23;48.7168;950.2881;;;;
2020/02/09 22:10:57;;;;;;;4.1;2;;;;;;;9.26;48.59375;950.264;;;;
2020/02/09 22:13:21;;;;;;;3.9;2.1;;;;;;;9.22;49.41504;949.9769;;;;
2020/02/09 22:15:45;;;;;;;5.6;2.8;;;;;;;9.13;48.90039;949.8362;;;;
2020/02/09 22:28:05;;;;;;;5;2.2;;;;;;;9.27;48.58301;949.5544;;;;
2020/02/09 22:32:37;;;;;;;5.1;2.3;;;;;;;9.24;48.74023;949.2089;;;;
2020/02/09 22:35:08;;;;;;;3.8;2.4;;;;;;;9.09;49.89355;949.0272;;;;
2020/02/09 22:37:45;;;;;;;5;2.2;;;;;;;9.09;49.62988;949.0499;;;;
2020/02/09 22:39:50;;;;;;;4;2.2;;;;;;;9.06;49.69531;949.0318;;;;
2020/02/09 22:42:16;;;;;;;4.2;2.2;;;;;;;9.14;49.45215;949.2527;;;;
2020/02/09 22:49:32;;;;;;;4.3;2;;;;;;;9.09;49.7207;949.4367;;;;
2020/02/09 22:54:32;;;;;;;4.1;2.3;;;;;;;8.94;50.62207;949.3038;;;;